Ana Sayfa
METAR-TAF:

METAR-TAF

Havaalanları :

Nevşehir Kapadokya Havalimanı

Nevşehir, Türkiye

Enlem: 38-46-12N, Boylam: 034-32-30E, yükseklik: 945 m

Güncel hava durumu gözlemi

Rapor saat 05:20 UTC de 34 dakika önce yapıldı.
Rüzgar değişken yönden 2 kt
Sıcaklık 21°C
Nem 38%
Basınç 1014 hPa
Görüş mesafesi 10 km veya daha fazla
1500 m altında bulut yok ve kümülonimbus yok

METAR: LTAZ 170520Z VRB02KT CAVOK 21/06 Q1014 RMK RWY29 VRB02KT

Saat: 08:54 (05:54 UTC)

Tahmin

Rapor saat 04:40 UTC de 1 saat ve 14 dakika önce yapıldı.
Ayın 17'si saat 06 UTC'den ayın 18'si saat 06 UTC'ye kadar geçerli Tahmin
Rüzgar değişken yönden 2 kt
Görüş mesafesi 10 km veya daha fazla
1500 m altında bulut yok ve kümülonimbus yok
Geçici
ayın 17'si saat 17 UTC'den ayın 17'si saat 20 UTC'ye kadar
Rüzgar kuzey/kuzeydoğudan 14 kt

TAF: LTAZ 170440Z 1706/1806 VRB02KT CAVOK TEMPO 1717/1720 03014KT

4.000'den fazla havaalanı için hava durumu gözlemleri ve tahminleri (METAR ve TAF raporları).

Kullanılabilir istasyonlar harita üzerinde sarı ve kırmızı noktalarla gösterilir.

İstasyonun adını görmek için fareyi noktanın üzerinde gezdirin.

Sonrasında hava gözlem ve tahminlerini görmek için tıklayın.

Haritayı değiştirmek için: yaklaştırmak için siyah artı işaretli yeşil düğmeye ve uzaklaştırmak için de eksi işaretli düğmeye hızla tıklayın; bitişik haritalar için yeşil okları kullanın.


METAR-TAF: